Latest Weather Observations for Sheoaks

IDV60801

Issued at 10:05 am EST Wednesday 3 September 2014 (issued every 30 minutes, with the page automatically refreshed every 10 minutes)

About weather observations | Map of weather stations | Latest weather observations for VIC | Other Formats
Station Details ID: 087168 Name: SHEOAKS Lat: -37.91 Lon: 144.13 Height: 236.7 m
Data from the previous 72 hours. | See also: Recent months at Sheoaks
Date/Time
EST
Temp
°C
App
Temp
°C
Dew
Point
Rel
Hum
%
Delta-T
°C
Wind Press
QNH
hPa
Press
MSL
hPa
Rain
since 9 am
mm
Dir
 
Spd
km/h
Gust
km/h
Spd
kts
Gust
kts
03/10:00am 9.9 6.0 3.6 65 2.8 S 13 22 7 12 1023.1 1023.3 0.0
03/09:30am 9.4 6.1 4.4 71 2.2 SSW 11 15 6 8 1023.5 1023.7 0.0
03/09:00am 8.3 5.9 4.3 76 1.8 SSW 6 7 3 4 1023.6 1023.8 2.0
03/08:30am 8.8 6.4 4.4 74 2.0 WSW 6 11 3 6 1023.8 1024.0 2.0
03/08:00am 7.2 5.5 4.2 81 1.3 WNW 2 4 1 2 1023.6 1023.8 2.0
03/07:30am 6.6 5.2 3.6 81 1.3 CALM 0 4 0 2 1023.4 1023.6 2.0
03/07:00am 6.2 4.7 3.2 81 1.3 CALM 0 4 0 2 1023.2 1023.4 2.0
03/06:30am 6.1 4.7 3.3 82 1.2 CALM 0 0 0 0 1023.1 1023.3 2.0
03/06:00am 6.1 4.6 3.1 81 1.3 CALM 0 2 0 1 1023.0 1023.2 2.0
03/05:30am 6.0 3.8 3.2 82 1.2 W 4 7 2 4 1022.9 1023.1 2.0
03/05:00am 6.2 4.0 3.4 82 1.2 WSW 4 9 2 5 1022.8 1023.0 2.0
03/04:30am 5.9 3.8 3.9 87 0.9 W 4 9 2 5 1022.8 1023.0 2.0
03/04:00am 6.0 2.9 3.8 86 0.9 W 9 17 5 9 1022.9 1023.1 2.0
03/03:30am 5.8 3.1 3.8 87 0.9 WSW 7 17 4 9 1022.9 1023.1 2.0
03/03:00am 5.8 3.2 4.0 88 0.8 W 7 13 4 7 1023.0 1023.2 2.0
03/02:30am 5.5 2.1 4.0 90 0.6 W 11 17 6 9 1023.0 1023.2 2.0
03/02:00am 5.3 2.0 4.3 93 0.4 W 11 13 6 7 1023.4 1023.6 2.0
03/01:30am 5.2 2.2 4.2 93 0.4 W 9 13 5 7 1023.6 1023.8 2.0
03/01:00am 5.7 2.9 5.0 95 0.3 W 9 13 5 7 1023.7 1023.9 2.0
03/12:30am 5.7 3.4 5.0 95 0.3 W 6 9 3 5 1023.6 1023.8 2.0
03/12:00am 5.6 2.4 4.9 95 0.3 W 11 15 6 8 1023.7 1023.9 2.0
 
Date/Time
EST
Temp
°C
App
Temp
°C
Dew
Point
Rel
Hum
%
Delta-T
°C
Wind Press
QNH
hPa
Press
MSL
hPa
Rain
since 9 am
mm
Dir
 
Spd
km/h
Gust
km/h
Spd
kts
Gust
kts
02/11:30pm 5.4 1.7 4.4 93 0.4 W 13 17 7 9 1023.6 1023.8 2.0
02/11:00pm 5.8 3.5 4.6 92 0.5 W 6 9 3 5 1023.6 1023.8 2.0
02/10:30pm 5.5 2.9 4.3 92 0.5 W 7 11 4 6 1023.7 1023.9 2.0
02/10:00pm 5.8 3.4 4.3 90 0.6 W 6 9 3 5 1023.8 1024.0 2.0
02/09:30pm 6.3 3.9 4.3 87 0.9 WSW 6 9 3 5 1023.8 1024.0 2.0
02/09:00pm 6.3 3.8 4.0 85 1.0 W 6 9 3 5 1023.5 1023.7 2.0
02/08:30pm 6.0 3.5 3.5 84 1.1 WSW 6 13 3 7 1023.6 1023.8 2.0
02/08:00pm 4.4 2.1 2.9 90 0.6 WNW 4 7 2 4 1023.4 1023.6 2.0
02/07:30pm 5.4 3.6 3.4 87 0.8 WNW 2 6 1 3 1023.2 1023.4 2.0
02/07:00pm 6.4 4.1 2.9 78 1.5 WSW 4 7 2 4 1022.9 1023.1 2.0
02/06:30pm 7.4 4.8 3.3 75 1.8 S 6 9 3 5 1022.6 1022.8 2.0
02/06:00pm 8.4 5.7 3.7 72 2.0 S 7 13 4 7 1022.2 1022.4 2.0
02/05:30pm 8.9 5.5 4.1 72 2.1 S 11 17 6 9 1021.7 1021.8 2.0
02/05:00pm 9.7 5.9 3.9 67 2.6 S 13 22 7 12 1021.4 1021.5 2.0
02/04:30pm 10.2 5.1 3.3 62 3.0 S 19 26 10 14 1021.1 1021.2 2.0
02/04:00pm 11.6 6.8 5.5 66 2.8 S 20 32 11 17 1020.6 1020.7 2.0
02/03:30pm 11.2 6.3 4.0 61 3.3 S 19 30 10 16 1020.3 1020.5 2.0
02/03:00pm 11.1 6.4 5.2 67 2.7 S 19 28 10 15 1020.2 1020.4 2.0
02/02:30pm 11.2 8.1 7.1 76 2.0 SSW 13 19 7 10 1020.0 1020.2 2.0
02/02:00pm 10.9 6.3 5.4 69 2.5 S 19 28 10 15 1019.8 1020.0 2.0
02/01:30pm 10.7 4.6 4.8 67 2.7 SSW 26 41 14 22 1019.6 1019.8 2.0
02/01:00pm 11.6 6.7 5.0 64 3.0 S 20 32 11 17 1019.5 1019.7 2.0
02/12:30pm 11.2 6.7 6.3 72 2.3 S 19 28 10 15 1019.7 1019.9 2.0
02/12:00pm 11.7 7.8 7.0 73 2.3 SSW 17 32 9 17 1019.6 1019.8 2.0
02/11:30am 10.8 7.4 7.5 80 1.6 SSW 15 22 8 12 1019.8 1020.0 2.0
02/11:00am 8.4 5.3 7.2 92 0.6 S 13 17 7 9 1020.0 1020.2 1.8
02/10:30am 9.2 5.4 5.8 79 1.6 SW 15 26 8 14 1019.6 1019.8 0.0
02/10:00am 10.0 6.3 6.5 79 1.7 SW 15 28 8 15 1019.4 1019.6 0.0
02/09:30am 8.9 5.7 6.9 87 0.9 WSW 13 22 7 12 1019.4 1019.6 0.0
02/09:00am 7.6 4.6 5.9 89 0.8 WSW 11 20 6 11 1019.1 1019.3 6.4
02/08:30am 8.0 4.7 6.3 89 0.8 W 13 20 7 11 1018.5 1018.7 6.2
02/08:00am 6.5 3.0 5.5 93 0.4 W 13 26 7 14 1018.2 1018.3 6.2
02/07:30am 6.2 3.5 5.5 95 0.3 W 9 15 5 8 1017.8 1017.9 6.2
02/07:00am 5.8 2.2 5.2 96 0.3 W 13 19 7 10 1017.3 1017.4 6.2
02/06:30am 6.1 2.6 5.5 96 0.3 W 13 19 7 10 1016.8 1016.9 6.2
02/06:00am 6.4 3.4 6.1 98 0.1 W 11 19 6 10 1016.4 1016.5 6.2
02/05:30am 6.4 3.0 6.1 98 0.1 W 13 19 7 10 1016.0 1016.1 6.2
02/05:00am 6.7 3.8 6.4 98 0.1 W 11 17 6 9 1015.5 1015.7 6.2
02/04:30am 6.6 3.3 6.3 98 0.1 W 13 19 7 10 1015.2 1015.4 6.2
02/04:00am 6.5 3.1 6.1 97 0.2 W 13 19 7 10 1014.7 1014.8 6.0
02/03:30am 6.8 3.5 6.2 96 0.3 W 13 22 7 12 1014.6 1014.7 5.8
02/03:00am 6.7 2.6 6.0 95 0.3 W 17 24 9 13 1014.5 1014.6 5.8
02/02:30am 6.5 2.3 5.6 94 0.4 W 17 24 9 13 1014.2 1014.3 5.8
02/02:00am 6.6 3.5 5.7 94 0.4 WNW 11 15 6 8 1013.9 1014.0 5.8
02/01:30am 7.1 3.4 6.2 94 0.4 W 15 22 8 12 1014.0 1014.1 5.8
02/01:00am 7.1 3.4 6.2 94 0.4 W 15 24 8 13 1014.0 1014.1 5.8
02/12:30am 7.2 4.0 6.8 97 0.2 W 13 19 7 10 1013.7 1013.8 5.8
02/12:00am 6.8 4.2 6.2 96 0.3 WNW 9 13 5 7 1013.5 1013.6 5.8
 
Date/Time
EST
Temp
°C
App
Temp
°C
Dew
Point
Rel
Hum
%
Delta-T
°C
Wind Press
QNH
hPa
Press
MSL
hPa
Rain
since 9 am
mm
Dir
 
Spd
km/h
Gust
km/h
Spd
kts
Gust
kts
01/11:30pm 6.8 3.9 6.4 97 0.2 WNW 11 15 6 8 1013.4 1013.5 5.8
01/11:00pm 7.1 4.2 6.7 97 0.2 WNW 11 19 6 10 1013.4 1013.5 5.8
01/10:30pm 7.0 4.5 6.6 97 0.2 WNW 9 15 5 8 1013.0 1013.1 5.8
01/10:00pm 6.9 4.3 6.3 96 0.3 NW 9 13 5 7 1012.9 1013.0 5.8
01/09:30pm 7.6 5.2 6.9 95 0.3 WNW 9 13 5 7 1012.8 1012.9 5.8
01/09:00pm 7.8 5.3 6.7 93 0.5 WNW 9 13 5 7 1012.6 1012.7 5.8
01/08:30pm 8.6 5.5 7.4 92 0.6 W 13 17 7 9 1012.2 1012.3 5.8
01/08:00pm 8.2 5.8 6.8 91 0.7 W 9 15 5 8 1011.6 1011.7 5.8
01/07:30pm 8.4 5.7 7.2 92 0.6 W 11 15 6 8 1011.7 1011.8 5.8
01/07:00pm 7.6 5.1 6.4 92 0.6 W 9 11 5 6 1011.1 1011.2 5.8
01/06:30pm 7.5 5.9 6.3 92 0.6 NW 4 6 2 3 1010.9 1011.0 5.8
01/06:00pm 8.1 5.9 6.4 89 0.8 W 7 11 4 6 1010.8 1010.9 5.6
01/05:30pm 7.8 4.8 6.1 89 0.8 WNW 11 17 6 9 1010.6 1010.7 5.2
01/05:00pm 7.5 3.0 6.1 91 0.6 W 19 26 10 14 1010.6 1010.7 3.8
01/04:47pm 7.9 1.6 5.7 86 1.0 W 28 54 15 29 1010.2 1010.3 3.2
01/04:30pm 10.7 7.5 8.6 87 1.0 W 15 24 8 13 1009.5 1009.6 3.0
01/04:00pm 10.5 7.9 7.7 83 1.4 W 11 15 6 8 1009.0 1009.1 3.0
01/03:30pm 10.5 8.7 9.4 93 0.6 W 9 17 5 9 1008.8 1008.9 3.0
01/03:00pm 10.4 8.2 9.3 93 0.6 W 11 20 6 11 1008.7 1008.8 2.6
01/02:30pm 10.8 9.0 9.4 91 0.7 WNW 9 15 5 8 1008.6 1008.7 2.0
01/02:00pm 10.4 8.6 9.3 93 0.6 WNW 9 13 5 7 1008.3 1008.4 2.0
01/01:30pm 10.3 8.1 9.5 95 0.4 WNW 11 20 6 11 1008.7 1008.8 1.6
01/01:00pm 10.1 6.7 9.2 94 0.5 W 17 24 9 13 1009.1 1009.2 1.0
01/12:30pm 11.9 7.4 8.6 80 1.7 W 22 35 12 19 1008.7 1008.8 0.6
01/12:00pm 12.0 9.0 9.4 84 1.3 WNW 15 24 8 13 1008.6 1008.7 0.6
01/11:30am 11.7 8.3 9.3 85 1.2 NW 17 26 9 14 1008.6 1008.7 0.6
01/11:00am 11.5 8.6 9.8 89 0.9 NW 15 24 8 13 1008.7 1008.8 0.6
01/10:30am 10.6 8.4 9.2 91 0.7 NW 11 17 6 9 1008.8 1008.9 0.6
01/10:00am 10.0 8.0 8.8 92 0.6 NNW 9 17 5 9 1008.9 1009.0 0.6
01/09:30am 9.3 7.2 8.2 93 0.5 NNW 9 17 5 9 1008.9 1009.1 0.4
01/09:00am 9.1 6.1 7.7 91 0.7 N 13 19 7 10 1008.9 1009.1 2.4
01/08:30am 9.4 7.0 7.0 85 1.1 NW 9 15 5 8 1009.1 1009.3 0.8
01/08:00am 10.3 7.7 5.9 74 2.1 NW 9 19 5 10 1008.7 1008.9 0.2
01/07:30am 11.8 8.1 4.3 60 3.4 NW 13 26 7 14 1009.0 1009.2 0.0
01/07:00am 12.1 9.5 4.1 58 3.7 NW 7 11 4 6 1008.5 1008.7 0.0
01/06:30am 12.4 9.0 3.9 56 3.9 W 11 19 6 10 1008.6 1008.8 0.0
01/06:00am 13.0 10.2 3.4 52 4.4 WSW 7 15 4 8 1008.3 1008.5 0.0
01/05:30am 14.6 11.4 2.8 45 5.3 NNW 9 15 5 8 1008.3 1008.5 0.0
01/05:00am 15.0 11.4 2.9 44 5.5 NNW 11 20 6 11 1007.8 1008.0 0.0
01/04:30am 15.5 9.8 2.7 42 5.8 NW 22 33 12 18 1007.7 1007.9 0.0
01/04:00am 16.0 11.1 2.1 39 6.3 N 17 26 9 14 1006.9 1007.2 0.0
01/03:30am 15.7 10.9 2.5 41 6.0 N 17 26 9 14 1006.8 1007.1 0.0
01/03:00am 15.6 11.2 2.7 42 5.9 N 15 24 8 13 1007.2 1007.4 0.0
01/02:30am 14.7 9.7 3.8 48 5.0 N 19 24 10 13 1007.7 1007.9 0.0
01/02:00am 14.9 9.1 4.3 49 5.0 N 24 33 13 18 1008.0 1008.2 0.0
01/01:30am 15.0 8.8 4.4 49 5.0 N 26 35 14 19 1008.6 1008.8 0.0
01/01:00am 15.5 9.3 4.3 47 5.3 N 26 41 14 22 1008.6 1008.8 0.0
01/12:30am 15.9 8.6 4.3 46 5.5 N 32 46 17 25 1009.0 1009.2 0.0
01/12:12am 16.3 9.7 4.4 45 5.6 N 28 46 15 25 1009.0 1009.2 0.0
01/12:00am 16.3 9.4 4.7 46 5.6 N 30 43 16 23 1009.2 1009.5 0.0
 
Date/Time
EST
Temp
°C
App
Temp
°C
Dew
Point
Rel
Hum
%
Delta-T
°C
Wind Press
QNH
hPa
Press
MSL
hPa
Rain
since 9 am
mm
Dir
 
Spd
km/h
Gust
km/h
Spd
kts
Gust
kts
31/11:30pm 16.6 9.7 4.6 45 5.7 N 30 43 16 23 1009.2 1009.5 0.0
31/11:00pm 16.7 10.6 4.7 45 5.8 N 26 41 14 22 1009.7 1010.0 0.0
31/10:30pm 17.1 11.4 4.8 44 5.9 N 24 35 13 19 1009.8 1010.1 0.0
31/10:00pm 17.1 10.0 5.4 46 5.7 N 32 43 17 23 1009.7 1010.0 0.0
31/09:30pm 17.4 11.0 5.4 45 5.9 N 28 41 15 22 1010.1 1010.4 0.0
31/09:00pm 16.9 11.8 6.1 49 5.3 N 22 35 12 19 1010.5 1010.8 0.0
31/08:30pm 16.4 12.4 6.5 52 4.9 N 17 24 9 13 1011.7 1011.9 0.0
31/08:00pm 14.8 12.5 7.6 62 3.6 NNE 9 17 5 9 1012.3 1012.5 0.0
31/07:30pm 14.4 12.2 7.9 65 3.3 NNE 9 13 5 7 1012.3 1012.5 0.0
31/07:00pm 14.6 12.4 7.9 64 3.4 NE 9 13 5 7 1012.5 1012.7 0.0
31/06:30pm 14.9 12.3 7.9 63 3.5 NE 11 15 6 8 1012.7 1013.0 0.0
31/06:00pm 15.7 12.7 7.5 58 4.1 NNE 13 19 7 10 1012.6 1012.8 0.0
31/05:30pm 16.5 12.6 7.2 54 4.7 N 17 26 9 14 1012.7 1013.0 0.0
31/05:00pm 17.8 13.7 6.0 46 5.9 N 17 22 9 12 1013.0 1013.3 0.0
31/04:30pm 18.4 15.3 7.2 48 5.7 N 13 22 7 12 1013.0 1013.3 0.0
31/04:00pm 18.6 14.5 6.1 44 6.2 N 17 26 9 14 1013.1 1013.4 0.0
31/03:30pm 18.6 15.1 7.1 47 5.9 N 15 22 8 12 1013.4 1013.7 0.0
31/03:00pm 18.6 15.2 6.1 44 6.2 N 13 20 7 11 1013.6 1013.9 0.0
31/02:30pm 19.0 15.2 7.4 47 6.0 N 17 28 9 15 1014.0 1014.3 0.0
31/02:00pm 18.2 14.1 6.4 46 5.9 N 17 28 9 15 1014.3 1014.6 0.0
31/01:30pm 17.9 13.3 5.8 45 6.0 N 19 30 10 16 1014.8 1015.1 0.0
31/01:00pm 18.7 13.4 4.8 40 6.8 N 22 33 12 18 1015.2 1015.5 0.0
31/12:30pm 17.9 12.3 5.2 43 6.2 NNW 24 37 13 20 1015.5 1015.8 0.0
31/12:00pm 18.0 11.6 5.2 43 6.2 NNW 28 43 15 23 1016.1 1016.3 0.0
31/11:30am 18.4 12.5 5.6 43 6.3 NNW 26 43 14 23 1016.6 1016.9 0.0
31/11:00am 18.4 12.1 5.9 44 6.2 NNW 28 44 15 24 1016.9 1017.2 0.0
31/10:30am 18.0 12.1 5.9 45 6.0 NNW 26 35 14 19 1017.1 1017.4 0.0

Other Formats:

Comma delimited format used in spreadsheet applications
http://www.bom.gov.au/fwo/IDV60801/IDV60801.94863.axf

JavaScript Object Notation format (JSON) in row-major order
http://www.bom.gov.au/fwo/IDV60801/IDV60801.94863.json